createdAt,value
2022-09-26T00:00:33.706Z,8.98
2022-09-26T00:05:37.050Z,10.40
2022-09-26T00:10:38.691Z,9.55
2022-09-26T00:15:40.346Z,9.63
2022-09-26T00:20:41.988Z,10.32
2022-09-26T00:25:50.939Z,10.48
2022-09-26T00:30:53.077Z,9.48
2022-09-26T00:35:55.811Z,11.17
2022-09-26T00:40:57.964Z,10.93
2022-09-26T00:46:05.094Z,10.53
2022-09-26T00:51:07.670Z,10.45
2022-09-26T00:56:15.991Z,11.45
2022-09-26T01:01:18.812Z,10.85
2022-09-26T01:11:23.812Z,10.80
2022-09-26T01:16:25.657Z,10.75
2022-09-26T01:27:07.722Z,11.02
2022-09-26T01:32:48.721Z,11.32
2022-09-26T01:38:09.393Z,19.13
2022-09-26T01:43:34.159Z,13.20
2022-09-26T01:48:44.407Z,13.07
2022-09-26T01:53:53.175Z,12.63
2022-09-26T01:58:56.861Z,13.73
2022-09-26T02:04:06.106Z,15.27
2022-09-26T02:09:12.705Z,14.93
2022-09-26T02:14:25.617Z,14.75
2022-09-26T02:20:02.367Z,16.60
2022-09-26T02:25:05.902Z,14.35
2022-09-26T02:30:08.602Z,13.88
2022-09-26T02:35:34.612Z,14.35
2022-09-26T02:41:02.977Z,13.73
2022-09-26T02:46:30.186Z,14.18
2022-09-26T02:52:08.861Z,13.43
2022-09-26T02:57:39.948Z,14.27
2022-09-26T03:02:50.950Z,14.52
2022-09-26T03:08:05.448Z,14.80
2022-09-26T03:13:13.247Z,14.25
2022-09-26T03:18:20.593Z,13.63
2022-09-26T03:23:26.972Z,13.88
2022-09-26T03:28:37.872Z,14.90
2022-09-26T03:33:40.879Z,15.07
2022-09-26T03:43:58.982Z,14.80
2022-09-26T03:49:13.289Z,15.20
2022-09-26T03:54:15.598Z,14.73
2022-09-26T03:59:17.492Z,14.73
2022-09-26T04:04:20.603Z,14.07
2022-09-26T04:09:23.556Z,14.63
2022-09-26T04:14:26.578Z,13.85
2022-09-26T04:19:31.811Z,14.77
2022-09-26T04:24:35.565Z,13.38
2022-09-26T04:29:37.402Z,13.67
2022-09-26T04:35:02.177Z,14.18
2022-09-26T04:40:04.634Z,14.82
2022-09-26T04:45:09.001Z,15.75
2022-09-26T04:50:10.786Z,16.00
2022-09-26T04:55:13.114Z,12.88
2022-09-26T05:00:15.857Z,14.43
2022-09-26T05:05:17.677Z,16.13
2022-09-26T05:10:19.508Z,15.43
2022-09-26T05:15:29.060Z,15.13
2022-09-26T05:20:31.767Z,13.93
2022-09-26T05:25:59.253Z,15.32
2022-09-26T05:31:01.445Z,15.98
2022-09-26T05:36:05.587Z,17.27
2022-09-26T05:41:07.520Z,16.85
2022-09-26T05:46:11.191Z,14.80
2022-09-26T05:51:21.090Z,15.73
2022-09-26T05:56:23.547Z,15.40
2022-09-26T06:01:38.688Z,14.18
2022-09-26T06:06:52.981Z,14.45
2022-09-26T06:11:54.706Z,15.60
2022-09-26T06:16:56.550Z,15.02
2022-09-26T06:21:58.178Z,13.35
2022-09-26T06:27:00.059Z,12.48
2022-09-26T06:32:01.826Z,14.07
2022-09-26T06:37:32.490Z,13.63
2022-09-26T06:42:38.077Z,12.50
2022-09-26T06:47:54.655Z,11.60
2022-09-26T06:53:10.500Z,12.57
2022-09-26T06:58:12.298Z,11.03
2022-09-26T07:03:29.552Z,11.38
2022-09-26T07:14:41.919Z,9.80
2022-09-26T07:19:53.651Z,8.80
2022-09-26T07:25:21.721Z,9.25
2022-09-26T07:30:23.877Z,9.57
2022-09-26T07:35:44.398Z,8.15
2022-09-26T07:40:46.308Z,8.00
2022-09-26T07:46:09.694Z,7.10
2022-09-26T07:51:12.558Z,8.48
2022-09-26T07:56:23.556Z,8.07
2022-09-26T08:01:38.188Z,8.38
2022-09-26T08:07:06.057Z,7.60
2022-09-26T08:12:14.432Z,7.53
2022-09-26T08:17:34.950Z,7.47
2022-09-26T08:22:37.859Z,7.35
2022-09-26T08:27:43.620Z,5.57
2022-09-26T08:32:54.066Z,5.15
2022-09-26T08:38:00.879Z,4.97
2022-09-26T08:43:42.941Z,5.18
2022-09-26T08:49:39.510Z,5.22
2022-09-26T08:54:44.487Z,4.55
2022-09-26T08:59:47.089Z,4.28
2022-09-26T09:05:10.292Z,3.83
2022-09-26T09:10:22.689Z,3.47
2022-09-26T09:15:46.287Z,3.40
2022-09-26T09:21:13.368Z,3.42
2022-09-26T09:32:31.163Z,3.08
2022-09-26T09:37:52.017Z,2.47
2022-09-26T09:43:13.449Z,2.40
2022-09-26T09:48:15.525Z,2.60
2022-09-26T09:53:32.304Z,2.43
2022-09-26T09:59:04.312Z,2.25
2022-09-26T10:04:37.428Z,2.13
2022-09-26T10:09:41.407Z,2.10
2022-09-26T10:15:07.542Z,2.83
2022-09-26T10:20:39.072Z,2.30
2022-09-26T10:25:48.239Z,2.30
2022-09-26T10:31:01.449Z,2.80
2022-09-26T10:36:31.345Z,2.83
2022-09-26T10:41:39.081Z,3.03
2022-09-26T10:46:45.295Z,2.95
2022-09-26T10:52:18.693Z,3.30
2022-09-26T10:57:33.621Z,3.17
2022-09-26T11:02:38.134Z,3.40
2022-09-26T11:07:43.853Z,3.45
2022-09-26T11:13:18.797Z,3.40
2022-09-26T11:18:33.181Z,3.45
2022-09-26T11:23:39.033Z,2.92
2022-09-26T11:29:08.862Z,3.03
2022-09-26T11:34:28.831Z,3.00
2022-09-26T11:39:59.135Z,3.00
2022-09-26T11:45:09.157Z,2.75
2022-09-26T11:50:51.513Z,2.60
2022-09-26T11:56:19.887Z,2.78
2022-09-26T12:01:55.823Z,2.30
2022-09-26T12:07:08.424Z,2.38
2022-09-26T12:12:41.404Z,2.10
2022-09-26T12:18:04.115Z,2.22
2022-09-26T12:23:46.016Z,2.67
2022-09-26T12:29:06.021Z,2.55
2022-09-26T12:34:18.981Z,2.90
2022-09-26T12:39:41.690Z,2.40
2022-09-26T12:45:02.508Z,2.33
2022-09-26T12:50:30.785Z,2.90
2022-09-26T12:55:56.971Z,2.50
2022-09-26T13:01:29.772Z,2.40
2022-09-26T13:07:18.879Z,2.05
2022-09-26T13:12:47.752Z,2.00
2022-09-26T13:17:57.843Z,1.90
2022-09-26T13:23:18.119Z,2.13
2022-09-26T13:28:24.089Z,2.20
2022-09-26T13:33:28.686Z,1.95
2022-09-26T13:38:53.165Z,1.83
2022-09-26T13:44:06.765Z,2.03
2022-09-26T13:49:33.800Z,2.03
2022-09-26T13:54:54.126Z,2.20
2022-09-26T13:59:55.772Z,2.10
2022-09-26T14:05:03.592Z,1.90
2022-09-26T14:10:17.941Z,2.10
2022-09-26T14:15:48.074Z,2.17
2022-09-26T14:21:05.478Z,1.92
2022-09-26T14:26:21.573Z,2.10
2022-09-26T14:31:26.286Z,1.90
2022-09-26T14:36:32.478Z,1.83
2022-09-26T14:41:36.430Z,1.75
2022-09-26T14:46:41.336Z,1.80
2022-09-26T14:51:48.982Z,2.00
2022-09-26T14:57:02.151Z,1.75
2022-09-26T15:02:26.026Z,1.75
2022-09-26T15:07:33.737Z,1.65
2022-09-26T15:12:48.019Z,1.48
2022-09-26T15:17:55.822Z,1.60
2022-09-26T15:22:58.867Z,1.38
2022-09-26T15:28:01.506Z,1.38
2022-09-26T15:33:04.194Z,1.50
2022-09-26T15:38:12.935Z,1.50
2022-09-26T15:43:21.785Z,1.40
2022-09-26T15:48:32.579Z,1.52
2022-09-26T15:53:39.774Z,1.40
2022-09-26T15:58:53.352Z,1.40
2022-09-26T16:03:58.728Z,1.30
2022-09-26T16:09:05.969Z,1.50
2022-09-26T16:14:23.148Z,1.55
2022-09-26T16:19:43.180Z,1.90
2022-09-26T16:24:44.870Z,2.50
2022-09-26T16:29:51.815Z,2.63
2022-09-26T16:34:53.499Z,1.70
2022-09-26T16:39:59.336Z,1.50
2022-09-26T16:45:04.828Z,1.95
2022-09-26T16:50:33.562Z,2.40
2022-09-26T16:55:36.308Z,2.20
2022-09-26T17:00:58.853Z,1.90
2022-09-26T17:06:00.598Z,3.10
2022-09-26T17:11:04.243Z,1.98
2022-09-26T17:16:07.358Z,2.45
2022-09-26T17:21:09.061Z,2.03
2022-09-26T17:26:23.926Z,2.35
2022-09-26T17:31:26.945Z,2.30
2022-09-26T17:36:29.615Z,2.65
2022-09-26T17:41:34.356Z,2.50
2022-09-26T17:46:38.349Z,4.28
2022-09-26T17:51:40.646Z,2.75
2022-09-26T17:56:42.382Z,2.70
2022-09-26T18:01:46.447Z,2.50
2022-09-26T18:06:48.106Z,2.20
2022-09-26T18:11:59.612Z,2.88
2022-09-26T18:17:02.085Z,2.50
2022-09-26T18:22:03.963Z,2.30
2022-09-26T18:27:07.283Z,2.58
2022-09-26T18:32:25.792Z,2.60
2022-09-26T18:37:27.495Z,2.50
2022-09-26T18:42:29.134Z,2.38
2022-09-26T18:47:45.080Z,2.42
2022-09-26T18:52:46.771Z,2.13
2022-09-26T18:58:06.950Z,2.05
2022-09-26T19:03:08.717Z,2.22
2022-09-26T19:08:28.118Z,1.95
2022-09-26T19:13:31.498Z,2.40
2022-09-26T19:18:33.525Z,2.50
2022-09-26T19:23:36.660Z,2.00
2022-09-26T19:28:38.814Z,2.00
2022-09-26T19:33:45.419Z,2.50
2022-09-26T19:38:47.125Z,2.70
2022-09-26T19:43:48.818Z,2.47
2022-09-26T19:48:50.549Z,2.70
2022-09-26T19:53:52.301Z,2.30
2022-09-26T19:58:54.084Z,2.58
2022-09-26T20:03:55.830Z,2.78
2022-09-26T20:09:02.167Z,2.90
2022-09-26T20:14:22.704Z,2.38
2022-09-26T20:19:30.400Z,2.22
2022-09-26T20:24:33.429Z,2.65
2022-09-26T20:29:56.633Z,2.95
2022-09-26T20:35:00.393Z,2.70
2022-09-26T20:40:22.639Z,2.90
2022-09-26T20:45:31.822Z,2.80
2022-09-26T20:50:37.020Z,3.08
2022-09-26T20:55:43.239Z,2.65
2022-09-26T21:00:46.104Z,2.22
2022-09-26T21:05:47.848Z,2.93
2022-09-26T21:10:49.693Z,3.17
2022-09-26T21:15:52.813Z,3.20
2022-09-26T21:20:59.358Z,3.40
2022-09-26T21:26:25.050Z,3.17
2022-09-26T21:31:32.259Z,3.17
2022-09-26T21:36:39.319Z,3.33
2022-09-26T21:41:41.095Z,3.45
2022-09-26T21:46:42.716Z,3.15
2022-09-26T21:51:49.632Z,3.50
2022-09-26T21:56:55.710Z,3.30
2022-09-26T22:01:57.560Z,3.30
2022-09-26T22:06:59.340Z,3.00
2022-09-26T22:12:01.491Z,2.92
2022-09-26T22:17:03.124Z,3.40
2022-09-26T22:22:04.832Z,2.80
2022-09-26T22:27:06.508Z,3.15
2022-09-26T22:32:08.595Z,2.80
2022-09-26T22:37:10.225Z,2.97
2022-09-26T22:42:12.134Z,3.05
2022-09-26T22:47:13.835Z,3.15
2022-09-26T22:52:15.474Z,2.95
2022-09-26T22:57:17.482Z,2.80
2022-09-26T23:02:19.216Z,2.67
2022-09-26T23:07:21.129Z,2.72
2022-09-26T23:12:23.136Z,2.70
2022-09-26T23:17:25.080Z,2.25
2022-09-26T23:22:26.698Z,2.63
2022-09-26T23:27:28.523Z,2.42
2022-09-26T23:32:30.233Z,2.00
2022-09-26T23:37:32.498Z,1.88
2022-09-26T23:42:34.281Z,2.08
2022-09-26T23:47:35.949Z,1.95
2022-09-26T23:52:37.734Z,2.03
2022-09-26T23:57:39.512Z,2.08
